Terminal Aerodrome Forecast
Issued by NWS North Platte, NE

Current Version | Previous Version | Text Only | Print | Product List | Glossary On
Versions: 1 2 3 4 5 6 7 8 9 10 11 12 13 14 15
000
FTUS43 KLBF 031126
TAFVTN
TAF
KVTN 031126Z 0312/0412 VRB06KT P6SM SCT200
     FM031600 11010KT P6SM SCT200
     FM040000 10010KT P6SM SCT060 BKN200 PROB30 0403/0409 4SM -TSRA
      BKN050CB
     FM040900 VRB06KT P6SM BKN200=

USA.gov is the U.S. government's official web portal to all federal, state and local government web resources and services.